Diaz, Arkansas
Current Conditions -  °F | °C
As of 12:40 AM on Monday 24 Nov 2014 (Local Time) from KM19 Reporting Station
Scattered Clouds Scattered Clouds  
Wind Chill: 16°   Ceiling: Unl
Heat Index: 16°   Visibility: 10mi
Dew Point: 14°   Wind: 17mph
Humidity: 88%   Direction: 230°SW
Pressure: 29.38"   Gusts: NA
Location:  35.64°N, 91.27°W
Report Text: KM19 240640Z AUTO 23015KT 10SM FEW015 SCT021 16/14 A2938 RMK AO2
Loading
Personal Weather Stations






























Interactive Weather Map New forecast layout! Learn more

10-Day Weather Forecast

Advertisements
Track Severe Weather on mobile